LFRM/LME METAR and TAF weather

Enter ICAO airport designator
Station Type Date Time Source
LFRM METAR 2019/12/14 19:30 UTC NOAA

LFRM 141930Z AUTO 19007KT 150V220 9999 -RA FEW039/// BKN070/// OVC096/// ///TCU 10/08 Q1001


Station Type Date Time Source
LFRM Decoded METAR 2019/12/14 19:30 UTC NOAA

Le Mans, France (LFRM) 47-56N 000-12E 52M
Dec 14, 2019 - 02:30 PM EST / 2019.12.14 1930 UTC
Wind: from the S (190 degrees) at 8 MPH (7 KT) (direction variable):0
Visibility: greater than 7 mile(s):0
Sky conditions: overcast
Weather: light rain; Towering cumulus clouds observed
Temperature: 50 F (10 C)
Dew Point: 46 F (8 C)
Relative Humidity: 87%
Pressure (altimeter): 29.56 in. Hg (1001 hPa)
ob: LFRM 141930Z AUTO 19007KT 150V220 9999 -RA FEW039/// BKN070/// OVC096/// ///TCU 10/08 Q1001
cycle: 19

Station Type Date Time Source
LFRM TAF 2019/12/14 19:07 UTC NOAA

TAF LFRM 141903Z 1419/1512 CNL

Example: see airport list